Time;durP1;ratioP1;P1;durP2;ratioP2;P2;SDS_P1;SDS_P2;PMS_P1;PMS_P2;Temp;Humidity;BMP_temperature;BMP_pressure;BME280_temperature;BME280_humidity;BME280_pressure;Samples;Min_cycle;Max_cycle;Signal;HPM_P1;HPM_P2
2021/12/19 00:08:28;;;;;;;20.02;8.10;;;7.40;99.90;;;;;;5107755;27;20052;-90
2021/12/19 00:10:30;;;;;;;13.07;5.82;;;7.40;99.90;;;;;;5105084;27;20084;-87
2021/12/19 00:12:57;;;;;;;15.43;5.60;;;7.40;99.90;;;;;;5097077;27;20086;-87
2021/12/19 00:15:23;;;;;;;11.52;5.57;;;7.40;99.90;;;;;;5082633;28;20086;-86
2021/12/19 00:17:49;;;;;;;15.88;4.72;;;7.40;99.90;;;;;;5090677;27;20104;-88
2021/12/19 00:20:14;;;;;;;9.90;4.65;;;7.40;99.90;;;;;;5111931;27;20040;-87
2021/12/19 00:22:40;;;;;;;10.35;4.28;;;7.40;99.90;;;;;;5087620;27;20055;-87
2021/12/19 00:25:06;;;;;;;8.38;4.28;;;8.20;99.90;;;;;;5086145;28;20350;-87
2021/12/19 00:27:32;;;;;;;11.02;3.72;;;7.40;99.90;;;;;;5104923;27;20036;-87
2021/12/19 00:29:59;;;;;;;10.18;3.42;;;7.40;99.90;;;;;;5105160;27;20054;-87
2021/12/19 00:32:24;;;;;;;7.00;3.38;;;7.70;99.90;;;;;;5102788;27;20051;-87
2021/12/19 00:34:51;;;;;;;9.13;3.20;;;7.40;99.90;;;;;;5084556;28;20062;-88
2021/12/19 00:37:21;;;;;;;9.25;3.47;;;7.40;99.90;;;;;;5084765;28;20077;-87
2021/12/19 00:39:47;;;;;;;12.25;3.90;;;7.40;99.90;;;;;;5113869;27;20048;-88
2021/12/19 00:42:25;;;;;;;8.43;3.22;;;7.40;99.90;;;;;;5124858;27;20507;-88
2021/12/19 00:44:52;;;;;;;6.07;1.80;;;7.40;99.90;;;;;;5108700;27;20526;-88
2021/12/19 00:47:18;;;;;;;5.68;1.92;;;7.50;99.90;;;;;;5086116;28;20055;-88
2021/12/19 00:49:43;;;;;;;4.63;1.58;;;7.40;99.90;;;;;;5088016;28;20152;-87
2021/12/19 00:52:09;;;;;;;5.85;1.30;;;7.30;99.90;;;;;;5086500;28;20075;-88
2021/12/19 00:54:35;;;;;;;5.82;1.48;;;7.90;99.90;;;;;;5088291;28;20051;-87
2021/12/19 00:57:00;;;;;;;4.00;1.30;;;7.30;99.90;;;;;;5074245;28;20506;-88
2021/12/19 00:59:26;;;;;;;5.65;1.45;;;7.30;99.90;;;;;;5112201;27;20031;-87
2021/12/19 01:01:52;;;;;;;6.35;1.50;;;7.30;99.90;;;;;;5109137;27;20571;-87
2021/12/19 01:04:19;;;;;;;3.55;1.30;;;7.80;99.90;;;;;;5089571;28;20097;-87
2021/12/19 01:06:47;;;;;;;4.38;1.25;;;7.30;99.90;;;;;;5086445;28;20063;-87
2021/12/19 01:09:13;;;;;;;4.40;1.17;;;7.30;99.90;;;;;;5089569;27;20040;-88
2021/12/19 01:11:39;;;;;;;5.78;1.40;;;7.50;99.90;;;;;;5090356;27;20035;-87
2021/12/19 01:14:06;;;;;;;4.95;1.58;;;8.10;99.90;;;;;;5103170;28;20381;-88
2021/12/19 01:16:32;;;;;;;4.03;1.48;;;7.30;99.90;;;;;;5089891;28;20044;-88
2021/12/19 01:18:58;;;;;;;5.18;1.33;;;7.30;99.90;;;;;;5091386;28;20055;-87
2021/12/19 01:21:24;;;;;;;5.93;1.30;;;7.40;99.90;;;;;;5089232;28;20492;-89
2021/12/19 01:23:49;;;;;;;4.10;1.40;;;7.30;99.90;;;;;;5107543;27;20039;-88
2021/12/19 01:26:15;;;;;;;2.13;1.08;;;7.30;99.90;;;;;;5105897;28;20042;-88
2021/12/19 01:28:42;;;;;;;6.75;1.42;;;7.30;99.90;;;;;;5092392;28;20031;-88
2021/12/19 01:31:12;;;;;;;4.93;1.30;;;7.30;99.90;;;;;;5117895;27;20048;-89
2021/12/19 01:33:38;;;;;;;6.07;1.15;;;7.30;99.90;;;;;;5090356;28;20454;-89
2021/12/19 01:36:05;;;;;;;4.38;1.20;;;7.20;99.90;;;;;;5121424;27;20047;-90
2021/12/19 01:38:31;;;;;;;7.22;1.23;;;7.20;99.90;;;;;;5087239;28;20077;-87
2021/12/19 01:40:57;;;;;;;4.05;1.10;;;7.20;99.90;;;;;;5125689;27;20048;-87
2021/12/19 01:43:25;;;;;;;3.42;1.20;;;7.30;99.90;;;;;;5092701;27;20039;-88
2021/12/19 01:45:53;;;;;;;3.50;1.30;;;7.20;99.90;;;;;;5113119;27;20051;-89
2021/12/19 01:48:20;;;;;;;3.88;1.30;;;7.20;99.90;;;;;;5088257;27;20514;-88
2021/12/19 01:50:46;;;;;;;7.30;1.60;;;7.20;99.90;;;;;;5089996;28;20051;-89
2021/12/19 01:53:13;;;;;;;8.95;1.40;;;7.30;99.90;;;;;;5106224;28;20709;-87
2021/12/19 01:55:40;;;;;;;4.25;1.52;;;7.20;99.90;;;;;;5091499;28;20042;-87
2021/12/19 01:58:07;;;;;;;7.32;1.42;;;7.90;99.90;;;;;;5098330;27;20051;-87
2021/12/19 02:00:40;;;;;;;5.57;1.38;;;7.20;99.90;;;;;;5086779;28;20039;-88
2021/12/19 02:03:11;;;;;;;4.65;1.67;;;7.20;99.90;;;;;;5107748;27;20387;-90
2021/12/19 02:05:37;;;;;;;4.65;1.42;;;7.20;99.90;;;;;;5116639;27;20043;-89
2021/12/19 02:08:07;;;;;;;4.35;1.45;;;7.20;99.90;;;;;;5107724;28;20089;-88
2021/12/19 02:10:34;;;;;;;6.07;1.50;;;7.20;99.90;;;;;;5092081;28;20039;-88
2021/12/19 02:13:02;;;;;;;4.47;1.73;;;7.20;99.90;;;;;;5084598;28;20043;-89
2021/12/19 02:15:29;;;;;;;5.68;1.42;;;7.20;99.90;;;;;;5090623;28;20245;-88
2021/12/19 02:17:59;;;;;;;5.43;1.63;;;7.10;99.90;;;;;;5091337;28;20601;-88
2021/12/19 02:20:31;;;;;;;7.18;1.83;;;7.20;99.90;;;;;;5109361;27;20044;-88
2021/12/19 02:22:57;;;;;;;6.80;1.73;;;7.20;99.90;;;;;;5084240;28;20087;-88
2021/12/19 02:25:23;;;;;;;5.25;1.77;;;7.20;99.90;;;;;;5088552;28;20339;-89
2021/12/19 02:27:49;;;;;;;5.10;1.50;;;7.20;99.90;;;;;;5090229;28;20442;-90
2021/12/19 02:30:14;;;;;;;5.30;1.40;;;7.10;99.90;;;;;;5109454;28;20495;-87
2021/12/19 02:32:41;;;;;;;4.10;1.10;;;7.10;99.90;;;;;;5090211;28;20051;-88
2021/12/19 02:35:16;;;;;;;12.10;1.40;;;7.10;99.90;;;;;;5114491;28;20047;-87
2021/12/19 02:38:12;;;;;;;5.55;1.23;;;7.00;99.90;;;;;;5102402;28;20096;-87
2021/12/19 02:48:09;;;;;;;5.68;1.20;;;7.10;99.90;;;;;;5106286;28;20047;-88
2021/12/19 02:48:56;;;;;;;3.65;1.05;;;7.00;99.90;;;;;;5104412;28;20487;-89
2021/12/19 02:51:22;;;;;;;5.03;1.33;;;7.00;99.90;;;;;;5088044;28;20040;-87
2021/12/19 02:53:48;;;;;;;1.85;0.95;;;7.00;99.90;;;;;;5088454;28;20040;-88
2021/12/19 02:56:13;;;;;;;4.68;0.90;;;7.00;99.90;;;;;;5089313;28;20506;-87
2021/12/19 02:58:42;;;;;;;2.65;0.98;;;7.00;99.90;;;;;;5097973;28;20035;-88
2021/12/19 03:01:14;;;;;;;3.80;0.98;;;6.90;99.90;;;;;;5097597;28;20051;-87
2021/12/19 03:03:40;;;;;;;2.85;1.00;;;6.90;99.90;;;;;;5115098;28;20035;-87
2021/12/19 03:06:06;;;;;;;5.97;1.08;;;7.40;99.90;;;;;;5117421;28;20095;-88
2021/12/19 03:08:32;;;;;;;3.03;1.10;;;6.80;99.90;;;;;;5078942;28;20396;-88
2021/12/19 03:18:42;;;;;;;5.00;1.00;;;7.00;99.90;;;;;;5104922;28;20142;-87
2021/12/19 03:21:15;;;;;;;4.47;0.80;;;6.70;99.90;;;;;;5092290;28;20039;-87
2021/12/19 03:23:41;;;;;;;4.20;1.05;;;6.80;99.90;;;;;;5100262;27;20067;-87
2021/12/19 03:26:08;;;;;;;6.78;1.25;;;7.20;99.90;;;;;;5097226;28;20102;-87
2021/12/19 03:28:34;;;;;;;9.85;1.80;;;6.70;99.90;;;;;;5114342;27;20449;-87
2021/12/19 03:31:02;;;;;;;6.93;1.30;;;6.70;99.90;;;;;;5091919;27;20057;-87
2021/12/19 03:33:28;;;;;;;7.53;1.50;;;6.80;99.90;;;;;;5127293;27;20043;-88
2021/12/19 03:35:54;;;;;;;8.18;1.33;;;6.80;99.90;;;;;;5098078;27;20134;-88
2021/12/19 03:38:20;;;;;;;9.48;1.42;;;6.70;99.90;;;;;;5092618;28;20699;-87
2021/12/19 03:40:53;;;;;;;7.55;1.42;;;6.70;99.90;;;;;;5110111;27;20364;-88
2021/12/19 03:43:23;;;;;;;6.18;1.42;;;6.80;99.90;;;;;;5095653;27;20111;-88
2021/12/19 03:45:50;;;;;;;7.13;1.50;;;6.80;99.90;;;;;;5111609;27;20119;-89
2021/12/19 03:48:16;;;;;;;7.45;1.80;;;6.80;99.90;;;;;;5109405;27;20039;-89
2021/12/19 03:50:49;;;;;;;8.65;1.77;;;6.80;99.90;;;;;;5092358;28;20099;-88
2021/12/19 03:53:16;;;;;;;7.20;1.35;;;6.80;99.90;;;;;;5091749;27;20046;-88
2021/12/19 03:55:42;;;;;;;7.78;1.20;;;6.70;99.90;;;;;;5092383;28;20035;-89
2021/12/19 03:58:09;;;;;;;5.47;1.30;;;6.70;99.90;;;;;;5109418;27;20101;-88
2021/12/19 04:00:36;;;;;;;3.88;1.17;;;6.70;99.90;;;;;;5101415;28;20115;-88
2021/12/19 04:03:07;;;;;;;5.18;1.00;;;6.80;99.90;;;;;;5091965;27;20039;-89
2021/12/19 04:05:33;;;;;;;6.28;1.23;;;6.70;99.90;;;;;;5119125;27;20043;-89
2021/12/19 04:07:59;;;;;;;6.18;1.35;;;6.70;99.90;;;;;;5105056;27;20177;-88
2021/12/19 04:10:27;;;;;;;6.22;2.17;;;6.70;99.90;;;;;;5093481;28;20044;-88
2021/12/19 04:12:54;;;;;;;5.18;1.50;;;6.70;99.90;;;;;;5093755;28;20044;-89
2021/12/19 04:15:20;;;;;;;10.90;2.10;;;6.70;99.90;;;;;;5113816;27;20043;-88
2021/12/19 04:17:46;;;;;;;5.45;2.08;;;6.70;99.90;;;;;;5109992;28;20392;-88
2021/12/19 04:20:15;;;;;;;12.10;2.67;;;6.70;99.90;;;;;;5090881;28;20048;-88
2021/12/19 04:22:43;;;;;;;10.43;2.72;;;6.70;99.90;;;;;;5108395;28;20403;-89
2021/12/19 04:25:10;;;;;;;10.43;2.97;;;6.80;99.90;;;;;;5127791;27;20079;-89
2021/12/19 04:27:36;;;;;;;16.13;3.15;;;6.80;99.90;;;;;;5102746;27;20046;-89
2021/12/19 04:30:04;;;;;;;11.43;3.08;;;6.80;99.90;;;;;;5110359;27;20381;-87
2021/12/19 04:32:34;;;;;;;15.77;4.07;;;6.80;99.90;;;;;;5090649;28;20039;-88
2021/12/19 04:35:00;;;;;;;16.83;4.05;;;6.80;99.90;;;;;;5109856;27;20477;-88
2021/12/19 04:53:26;;;;;;;19.13;4.55;;;7.50;99.90;;;;;;5108645;28;20404;-88
2021/12/19 05:06:21;;;;;;;18.98;6.05;;;6.90;99.90;;;;;;5118739;27;20496;-89
2021/12/19 05:14:21;;;;;;;21.55;6.75;;;6.90;99.90;;;;;;5099534;28;20464;-89
2021/12/19 05:16:48;;;;;;;24.87;7.43;;;6.90;99.90;;;;;;5109162;28;20043;-89
2021/12/19 05:21:43;;;;;;;20.70;6.90;;;6.90;99.90;;;;;;5108906;28;20043;-88
2021/12/19 05:24:43;;;;;;;27.98;8.65;;;6.90;99.90;;;;;;5091301;27;20092;-91
2021/12/19 05:27:08;;;;;;;28.02;8.70;;;6.90;99.90;;;;;;5116132;27;20112;-89
2021/12/19 05:29:35;;;;;;;26.10;11.20;;;6.90;99.90;;;;;;5113088;27;20043;-89
2021/12/19 05:32:02;;;;;;;26.58;10.52;;;7.00;99.90;;;;;;5090879;28;20071;-90
2021/12/19 05:34:29;;;;;;;30.90;11.95;;;7.00;99.90;;;;;;5114437;27;20051;-90
2021/12/19 05:45:15;;;;;;;28.92;11.27;;;7.00;99.90;;;;;;5120970;27;20148;-89
2021/12/19 05:47:46;;;;;;;27.95;10.52;;;7.00;99.90;;;;;;5081120;28;20051;-89
2021/12/19 05:50:14;;;;;;;29.23;10.00;;;7.00;99.90;;;;;;5115814;27;20110;-88
2021/12/19 05:52:40;;;;;;;32.30;11.80;;;7.00;99.90;;;;;;5100715;28;20120;-88
2021/12/19 05:55:07;;;;;;;25.23;9.23;;;7.00;99.90;;;;;;5080557;28;20043;-89
2021/12/19 05:57:33;;;;;;;31.25;10.15;;;7.00;99.90;;;;;;5105464;28;20067;-89
2021/12/19 06:00:00;;;;;;;25.38;8.43;;;7.00;99.90;;;;;;5093371;27;20510;-89
2021/12/19 06:02:26;;;;;;;19.23;7.32;;;7.00;99.90;;;;;;5091872;28;20265;-88
2021/12/19 06:04:52;;;;;;;26.52;6.72;;;7.00;99.90;;;;;;5107535;28;20040;-89
2021/12/19 06:07:18;;;;;;;20.13;6.32;;;7.00;99.90;;;;;;5089875;28;20044;-89
2021/12/19 06:09:44;;;;;;;26.90;6.28;;;7.70;99.90;;;;;;5090543;28;20470;-89
2021/12/19 06:12:10;;;;;;;17.55;5.70;;;7.00;99.90;;;;;;5086925;28;20078;-89
2021/12/19 06:14:35;;;;;;;23.92;6.80;;;7.40;99.90;;;;;;5089513;28;20036;-88
2021/12/19 06:17:03;;;;;;;22.88;5.43;;;7.00;99.90;;;;;;5085236;28;20039;-88
2021/12/19 06:19:30;;;;;;;24.05;6.53;;;7.00;99.90;;;;;;5098837;28;20412;-88
2021/12/19 06:21:55;;;;;;;22.25;5.45;;;7.00;99.90;;;;;;5085486;28;20055;-88
2021/12/19 06:24:21;;;;;;;16.88;5.07;;;7.00;99.90;;;;;;5090196;28;20039;-88
2021/12/19 06:26:47;;;;;;;23.52;5.97;;;7.00;99.90;;;;;;5112001;27;20438;-88
2021/12/19 06:29:13;;;;;;;23.92;5.93;;;7.00;99.90;;;;;;5105695;28;20046;-89
2021/12/19 06:31:39;;;;;;;19.17;5.85;;;7.00;99.90;;;;;;5088454;28;20681;-89
2021/12/19 06:34:04;;;;;;;24.40;6.13;;;7.00;99.90;;;;;;5105046;28;20100;-88
2021/12/19 06:36:30;;;;;;;18.40;6.28;;;7.00;99.90;;;;;;5098006;28;20402;-89
2021/12/19 06:38:56;;;;;;;22.70;6.07;;;7.00;99.90;;;;;;5105761;28;20108;-88
2021/12/19 06:41:22;;;;;;;30.50;6.82;;;7.00;99.90;;;;;;5095260;28;20445;-88
2021/12/19 06:43:48;;;;;;;25.10;6.65;;;7.00;99.90;;;;;;5093375;28;20408;-88
2021/12/19 06:46:14;;;;;;;23.33;6.13;;;7.00;99.90;;;;;;5088746;28;20051;-88
2021/12/19 06:48:40;;;;;;;22.92;6.28;;;7.00;99.90;;;;;;5084244;28;20617;-89
2021/12/19 06:51:06;;;;;;;21.25;6.25;;;7.00;99.90;;;;;;5088727;28;20047;-88
2021/12/19 06:53:32;;;;;;;25.38;5.47;;;7.00;99.90;;;;;;5089010;28;20050;-88
2021/12/19 06:55:58;;;;;;;15.68;4.97;;;7.00;99.90;;;;;;5072032;28;20116;-89
2021/12/19 06:58:25;;;;;;;17.33;5.00;;;7.00;99.90;;;;;;5091140;28;20039;-90
2021/12/19 07:00:51;;;;;;;17.85;4.90;;;7.00;99.90;;;;;;5095254;28;20514;-88
2021/12/19 07:03:20;;;;;;;19.60;4.93;;;7.00;99.90;;;;;;5093820;27;20052;-89
2021/12/19 07:05:45;;;;;;;20.52;5.28;;;7.00;99.90;;;;;;5126456;27;20039;-88
2021/12/19 07:08:11;;;;;;;14.95;4.70;;;7.00;99.90;;;;;;5105498;27;20487;-88
2021/12/19 07:10:37;;;;;;;16.27;3.50;;;7.00;99.90;;;;;;5093623;27;20054;-89
2021/12/19 07:13:02;;;;;;;14.10;3.40;;;7.00;99.90;;;;;;5098568;27;20039;-88
2021/12/19 07:15:28;;;;;;;18.48;2.88;;;7.00;99.90;;;;;;5109099;27;20792;-89
2021/12/19 07:17:55;;;;;;;11.95;2.90;;;7.00;99.90;;;;;;5094707;27;20043;-88
2021/12/19 07:20:21;;;;;;;14.57;3.30;;;7.00;99.90;;;;;;5090237;28;20035;-88
2021/12/19 07:22:47;;;;;;;14.82;3.42;;;7.00;99.90;;;;;;5088381;28;20698;-89
2021/12/19 07:25:13;;;;;;;17.77;3.13;;;7.00;99.90;;;;;;5119209;27;20036;-88
2021/12/19 07:27:39;;;;;;;19.63;3.75;;;7.00;99.90;;;;;;5089837;28;20566;-89
2021/12/19 07:30:05;;;;;;;16.55;3.33;;;7.30;99.90;;;;;;5082718;28;20048;-88
2021/12/19 07:32:32;;;;;;;18.67;3.50;;;7.00;99.90;;;;;;5102313;27;20040;-88
2021/12/19 07:34:58;;;;;;;20.00;4.07;;;7.00;99.90;;;;;;5089544;27;20060;-88
2021/12/19 07:37:24;;;;;;;19.27;3.60;;;7.00;99.90;;;;;;5103905;28;20039;-88
2021/12/19 07:39:57;;;;;;;16.23;3.35;;;7.00;99.90;;;;;;5089034;28;20115;-87
2021/12/19 07:42:23;;;;;;;19.63;4.30;;;7.00;99.90;;;;;;5104684;27;20136;-88
2021/12/19 07:44:49;;;;;;;14.20;3.30;;;7.00;99.90;;;;;;5090570;28;20066;-88
2021/12/19 07:47:15;;;;;;;19.42;3.55;;;7.00;99.90;;;;;;5107146;27;20061;-89
2021/12/19 07:49:41;;;;;;;18.88;4.28;;;7.00;99.90;;;;;;5088058;28;20043;-89
2021/12/19 07:52:07;;;;;;;15.27;3.60;;;7.00;99.90;;;;;;5105569;27;20043;-89
2021/12/19 07:54:33;;;;;;;18.60;3.95;;;7.00;99.90;;;;;;5090415;28;20044;-89
2021/12/19 07:56:59;;;;;;;19.75;3.63;;;7.00;99.90;;;;;;5086629;28;20044;-89
2021/12/19 07:59:25;;;;;;;23.83;3.97;;;7.70;99.90;;;;;;5106733;27;20071;-88
2021/12/19 08:01:51;;;;;;;24.05;3.92;;;7.00;99.90;;;;;;5082515;28;20151;-89
2021/12/19 08:04:16;;;;;;;19.85;3.55;;;7.00;99.90;;;;;;5101541;28;20043;-90
2021/12/19 08:06:42;;;;;;;21.98;3.63;;;7.00;99.90;;;;;;5135809;27;20032;-88
2021/12/19 08:09:21;;;;;;;11.40;2.70;;;7.10;99.90;;;;;;5084714;28;20044;-88
2021/12/19 08:11:47;;;;;;;22.27;3.22;;;7.10;99.90;;;;;;5088941;28;20069;-89
2021/12/19 08:14:14;;;;;;;21.10;3.72;;;7.10;99.90;;;;;;5087653;28;20040;-88
2021/12/19 08:16:41;;;;;;;16.70;3.00;;;7.10;99.90;;;;;;5090832;27;20039;-88
2021/12/19 08:19:07;;;;;;;14.73;2.53;;;7.10;99.90;;;;;;5118541;27;20055;-88
2021/12/19 08:21:34;;;;;;;13.90;3.13;;;7.10;99.90;;;;;;5109355;28;20362;-88
2021/12/19 08:24:02;;;;;;;16.00;2.80;;;7.70;99.90;;;;;;5086791;28;20039;-88
2021/12/19 08:26:31;;;;;;;13.80;3.58;;;7.10;99.90;;;;;;5105858;27;20298;-88
2021/12/19 08:28:57;;;;;;;18.77;2.78;;;7.10;99.90;;;;;;5092468;28;20117;-88
2021/12/19 08:31:23;;;;;;;12.57;2.78;;;7.10;99.90;;;;;;5086504;28;20463;-88
2021/12/19 08:33:49;;;;;;;19.70;3.10;;;7.60;99.90;;;;;;5108874;27;20067;-89
2021/12/19 08:36:15;;;;;;;9.45;2.28;;;7.20;99.90;;;;;;5086984;27;20082;-89
2021/12/19 08:38:41;;;;;;;18.75;2.50;;;7.80;99.90;;;;;;5093733;27;20139;-88
2021/12/19 08:41:07;;;;;;;13.73;2.78;;;7.20;99.90;;;;;;5106507;27;20074;-87
2021/12/19 08:43:33;;;;;;;11.80;1.98;;;7.20;99.90;;;;;;5106691;27;20193;-88
2021/12/19 08:45:58;;;;;;;15.10;2.45;;;8.00;99.90;;;;;;5085661;27;20693;-88
2021/12/19 08:48:24;;;;;;;13.57;2.80;;;7.20;99.90;;;;;;5080208;28;20041;-87
2021/12/19 08:50:51;;;;;;;16.17;2.22;;;7.60;99.90;;;;;;5096739;28;20055;-88
2021/12/19 08:53:17;;;;;;;14.98;2.65;;;7.20;99.90;;;;;;5103085;27;20044;-88
2021/12/19 08:55:43;;;;;;;12.13;2.00;;;7.20;99.90;;;;;;5094596;28;20054;-89
2021/12/19 08:58:09;;;;;;;12.40;2.28;;;7.30;99.90;;;;;;5095379;27;20126;-88
2021/12/19 09:00:35;;;;;;;17.50;2.55;;;7.30;99.90;;;;;;5086726;28;20166;-88
2021/12/19 09:03:01;;;;;;;15.70;2.28;;;7.30;99.90;;;;;;5087511;28;20056;-88
2021/12/19 09:05:28;;;;;;;12.30;2.38;;;7.30;99.90;;;;;;5095812;27;20425;-88
2021/12/19 09:07:54;;;;;;;16.45;2.78;;;7.60;99.90;;;;;;5090606;27;20065;-88
2021/12/19 09:10:21;;;;;;;14.43;2.80;;;7.30;99.90;;;;;;5080370;28;20044;-88
2021/12/19 09:12:48;;;;;;;14.30;2.83;;;7.30;99.90;;;;;;5078007;28;20048;-88
2021/12/19 09:15:14;;;;;;;14.55;2.72;;;7.30;99.90;;;;;;5091991;28;20108;-88
2021/12/19 09:17:40;;;;;;;15.43;2.58;;;7.30;99.90;;;;;;5097748;27;20032;-88
2021/12/19 09:20:07;;;;;;;16.85;2.95;;;7.30;99.90;;;;;;5103064;28;20055;-88
2021/12/19 09:22:34;;;;;;;14.15;2.58;;;7.30;99.90;;;;;;5105458;27;20447;-88
2021/12/19 09:25:00;;;;;;;16.80;2.35;;;7.30;99.90;;;;;;5085619;28;20031;-88
2021/12/19 09:27:26;;;;;;;12.77;2.40;;;7.30;99.90;;;;;;5096015;27;20036;-88
2021/12/19 09:29:53;;;;;;;18.67;2.70;;;7.30;99.90;;;;;;5113353;27;20047;-87
2021/12/19 09:32:18;;;;;;;15.15;2.10;;;7.40;99.90;;;;;;5092595;28;20039;-88
2021/12/19 09:34:44;;;;;;;19.45;2.75;;;7.40;99.90;;;;;;5112072;27;20066;-88
2021/12/19 09:37:10;;;;;;;10.52;2.08;;;7.40;99.90;;;;;;5094695;28;20047;-89
2021/12/19 09:39:36;;;;;;;14.60;3.30;;;7.40;99.90;;;;;;5090819;28;20039;-88
2021/12/19 09:42:09;;;;;;;19.10;2.58;;;7.40;99.90;;;;;;5085392;28;20050;-88
2021/12/19 09:44:36;;;;;;;16.23;2.85;;;7.50;99.90;;;;;;5108840;27;20058;-88
2021/12/19 09:47:04;;;;;;;19.48;2.38;;;7.40;99.90;;;;;;5108580;27;20072;-88
2021/12/19 09:49:30;;;;;;;17.02;2.50;;;7.40;99.90;;;;;;5093748;27;20047;-88
2021/12/19 09:51:56;;;;;;;15.05;2.63;;;7.50;99.90;;;;;;5110268;27;20047;-88
2021/12/19 09:54:21;;;;;;;18.48;3.10;;;7.40;99.90;;;;;;5089654;28;20067;-88
2021/12/19 09:56:48;;;;;;;12.85;2.88;;;7.50;99.90;;;;;;5096866;27;20130;-88
2021/12/19 09:59:17;;;;;;;18.48;3.08;;;7.50;99.90;;;;;;5117315;27;20440;-87
2021/12/19 10:01:42;;;;;;;18.35;2.95;;;7.50;99.90;;;;;;5093202;28;20043;-87
2021/12/19 10:04:38;;;;;;;13.63;3.50;;;7.50;99.90;;;;;;5091119;27;20065;-87
2021/12/19 10:07:06;;;;;;;14.32;3.00;;;7.50;99.90;;;;;;5086682;27;20426;-88
2021/12/19 10:09:32;;;;;;;19.50;3.03;;;7.50;99.90;;;;;;5107037;27;20469;-88
2021/12/19 10:12:12;;;;;;;22.92;3.53;;;7.50;99.90;;;;;;5081400;28;20489;-86
2021/12/19 10:14:39;;;;;;;16.48;3.33;;;7.60;99.90;;;;;;5088174;28;20043;-86
2021/12/19 10:17:15;;;;;;;20.58;3.72;;;7.50;99.90;;;;;;5090919;28;20124;-86
2021/12/19 10:19:43;;;;;;;22.23;3.78;;;7.60;99.90;;;;;;5086940;28;20047;-87
2021/12/19 10:22:45;;;;;;;17.40;2.80;;;8.20;99.90;;;;;;5099532;27;20047;-87
2021/12/19 10:25:12;;;;;;;20.40;2.88;;;7.60;99.90;;;;;;5133366;27;20044;-88
2021/12/19 10:27:44;;;;;;;19.50;3.42;;;7.60;99.90;;;;;;5086055;28;20399;-87
2021/12/19 10:30:26;;;;;;;11.20;2.70;;;8.40;99.90;;;;;;5114987;27;20081;-88
2021/12/19 10:32:58;;;;;;;25.40;3.20;;;7.60;99.90;;;;;;5086311;28;20447;-87
2021/12/19 10:35:29;;;;;;;;;;;7.60;99.90;;;;;;5087188;28;20050;-87
2021/12/19 10:37:54;;;;;;;19.38;3.17;;;7.60;99.90;;;;;;5108318;27;20455;-87
2021/12/19 10:40:21;;;;;;;21.73;3.20;;;7.60;99.90;;;;;;5089191;28;20055;-88
2021/12/19 10:42:55;;;;;;;16.38;3.15;;;7.80;99.90;;;;;;5116866;27;20035;-88
2021/12/19 10:45:30;;;;;;;19.48;3.10;;;7.60;99.90;;;;;;5084205;28;20172;-88
2021/12/19 10:48:32;;;;;;;25.00;3.90;;;7.60;99.90;;;;;;5078890;28;20088;-88
2021/12/19 10:51:16;;;;;;;22.70;3.15;;;7.90;99.90;;;;;;5026665;28;20477;-88
2021/12/19 10:53:45;;;;;;;22.60;3.83;;;7.60;99.90;;;;;;5105654;27;20523;-88
2021/12/19 10:56:32;;;;;;;23.05;3.33;;;7.60;99.90;;;;;;5108938;28;20074;-88
2021/12/19 10:59:09;;;;;;;22.00;3.40;;;7.60;99.90;;;;;;5097914;28;20051;-87
2021/12/19 11:01:41;;;;;;;21.98;3.13;;;8.30;99.90;;;;;;5087095;28;20126;-87
2021/12/19 11:04:13;;;;;;;;;;;7.60;99.90;;;;;;5098644;28;20047;-87
2021/12/19 11:06:47;;;;;;;22.35;2.78;;;7.60;99.90;;;;;;5089807;28;19923;-87
2021/12/19 11:09:34;;;;;;;22.63;2.85;;;7.70;99.90;;;;;;5091696;28;20407;-87
2021/12/19 11:12:05;;;;;;;18.90;2.85;;;7.60;99.90;;;;;;5083237;28;20151;-87
2021/12/19 11:14:37;;;;;;;22.35;3.17;;;7.40;99.90;;;;;;5083762;28;20051;-87
2021/12/19 11:17:18;;;;;;;21.27;2.92;;;7.70;99.90;;;;;;5087734;28;20050;-87
2021/12/19 11:19:44;;;;;;;11.00;2.38;;;7.70;99.90;;;;;;5082852;28;20044;-87
2021/12/19 11:22:12;;;;;;;17.48;2.63;;;7.70;99.90;;;;;;5102706;28;20042;-87
2021/12/19 11:24:38;;;;;;;17.83;3.00;;;7.70;99.90;;;;;;5089363;28;20508;-87
2021/12/19 11:27:06;;;;;;;19.92;2.95;;;7.70;99.90;;;;;;5097030;28;20052;-87
2021/12/19 11:29:32;;;;;;;23.20;2.90;;;7.70;99.90;;;;;;5090483;28;20123;-85
2021/12/19 11:32:02;;;;;;;20.92;3.33;;;7.70;99.90;;;;;;5088993;28;20123;-86
2021/12/19 11:34:56;;;;;;;18.90;2.55;;;7.70;99.90;;;;;;5085542;28;20404;-88
2021/12/19 11:37:43;;;;;;;21.98;2.75;;;7.70;99.90;;;;;;5099257;28;20043;-87
2021/12/19 11:40:14;;;;;;;19.92;3.20;;;7.70;99.90;;;;;;5082131;28;20046;-88
2021/12/19 11:42:41;;;;;;;21.45;4.07;;;7.80;99.90;;;;;;5094437;28;20035;-86
2021/12/19 11:45:27;;;;;;;25.75;3.00;;;7.80;99.90;;;;;;5103243;28;20382;-86
2021/12/19 11:47:58;;;;;;;23.13;3.25;;;7.80;99.90;;;;;;5101229;28;20526;-86
2021/12/19 11:50:41;;;;;;;19.65;2.38;;;7.80;99.90;;;;;;5103010;27;20051;-86
2021/12/19 11:53:09;;;;;;;21.05;3.15;;;8.50;99.90;;;;;;5087517;27;20055;-85
2021/12/19 11:55:44;;;;;;;19.58;3.00;;;7.80;99.90;;;;;;5094256;27;20047;-86
2021/12/19 11:58:12;;;;;;;13.20;2.40;;;7.90;99.90;;;;;;5095851;27;20039;-87
2021/12/19 12:00:55;;;;;;;25.65;3.45;;;7.80;99.90;;;;;;5097121;27;20038;-87
2021/12/19 12:03:24;;;;;;;23.30;3.10;;;7.90;99.90;;;;;;5081984;28;20054;-86
2021/12/19 12:06:23;;;;;;;25.45;3.17;;;7.90;99.90;;;;;;5081387;28;20051;-86
2021/12/19 12:09:07;;;;;;;20.45;3.50;;;7.80;99.90;;;;;;5074113;28;20522;-86
2021/12/19 12:12:00;;;;;;;25.63;4.68;;;7.90;99.90;;;;;;5080050;28;20051;-86
2021/12/19 12:14:31;;;;;;;22.67;3.45;;;7.90;99.90;;;;;;5082522;28;20522;-88
2021/12/19 12:17:04;;;;;;;18.63;2.95;;;7.90;99.90;;;;;;5089332;28;20460;-87
2021/12/19 12:19:38;;;;;;;23.85;3.35;;;8.60;99.90;;;;;;5116127;27;20059;-86
2021/12/19 12:22:25;;;;;;;23.20;3.40;;;8.00;99.90;;;;;;5118158;27;20055;-87
2021/12/19 12:25:30;;;;;;;16.95;2.80;;;8.00;99.90;;;;;;5084549;27;20146;-86
2021/12/19 12:28:05;;;;;;;24.23;3.65;;;8.00;99.90;;;;;;5103807;28;20043;-85
2021/12/19 12:30:54;;;;;;;22.75;3.15;;;8.00;99.90;;;;;;5105676;27;20044;-86
2021/12/19 12:33:24;;;;;;;25.50;3.30;;;8.00;99.90;;;;;;5082544;27;20059;-87
2021/12/19 12:35:51;;;;;;;22.55;3.25;;;8.00;99.90;;;;;;5083860;27;20039;-88
2021/12/19 12:38:19;;;;;;;22.95;3.05;;;8.00;99.90;;;;;;5099198;27;20106;-87
2021/12/19 12:43:18;;;;;;;20.23;2.50;;;8.00;99.90;;;;;;5095828;27;20069;-86
2021/12/19 12:46:00;;;;;;;22.48;3.38;;;8.00;99.90;;;;;;5087551;28;20594;-87
2021/12/19 12:49:06;;;;;;;22.33;3.75;;;8.10;99.90;;;;;;5081103;28;20051;-87
2021/12/19 12:51:34;;;;;;;25.30;3.17;;;8.00;99.90;;;;;;5063352;28;20059;-88
2021/12/19 12:54:14;;;;;;;26.88;3.65;;;8.10;99.90;;;;;;5089676;27;20047;-82
2021/12/19 12:56:47;;;;;;;27.58;3.55;;;8.00;99.90;;;;;;5124992;27;20488;-82
2021/12/19 12:59:36;;;;;;;19.77;2.72;;;8.10;99.90;;;;;;5079412;28;20043;-82
2021/12/19 13:02:14;;;;;;;27.02;3.53;;;8.10;99.90;;;;;;5098308;28;20075;-82
2021/12/19 13:04:49;;;;;;;27.05;3.13;;;8.00;99.90;;;;;;5088283;28;20039;-83
2021/12/19 13:07:16;;;;;;;31.20;3.45;;;8.00;99.90;;;;;;5075036;28;20043;-83
2021/12/19 13:09:46;;;;;;;24.55;3.42;;;8.00;99.90;;;;;;5093226;27;20489;-82
2021/12/19 13:12:22;;;;;;;31.75;3.30;;;8.00;99.90;;;;;;5088562;28;20039;-83
2021/12/19 13:15:02;;;;;;;25.70;3.15;;;8.00;99.90;;;;;;5081564;28;20040;-82
2021/12/19 13:17:33;;;;;;;21.42;2.63;;;8.00;99.90;;;;;;5078916;27;20039;-82
2021/12/19 13:20:02;;;;;;;19.67;2.40;;;8.00;99.90;;;;;;5084832;28;20739;-82
2021/12/19 13:22:38;;;;;;;23.98;3.55;;;8.50;99.90;;;;;;5096333;28;20530;-83
2021/12/19 13:25:13;;;;;;;22.42;2.88;;;8.00;99.90;;;;;;5081393;28;20497;-83
2021/12/19 13:27:47;;;;;;;21.35;3.20;;;8.00;99.90;;;;;;5091162;28;20048;-84
2021/12/19 13:30:24;;;;;;;19.77;2.70;;;8.00;99.90;;;;;;5073848;28;20119;-83
2021/12/19 13:32:56;;;;;;;23.42;3.40;;;8.00;99.90;;;;;;5082119;28;20055;-83
2021/12/19 13:35:29;;;;;;;20.48;3.53;;;8.00;99.90;;;;;;5072958;28;20398;-83
2021/12/19 13:38:09;;;;;;;23.25;3.95;;;8.00;99.90;;;;;;5093525;28;20058;-84
2021/12/19 13:40:36;;;;;;;20.05;3.90;;;8.00;99.90;;;;;;5074097;28;20044;-83
2021/12/19 13:43:05;;;;;;;23.80;2.78;;;8.00;99.90;;;;;;5081387;28;20065;-83
2021/12/19 13:45:49;;;;;;;21.60;3.65;;;8.00;99.90;;;;;;5075321;28;20031;-82
2021/12/19 13:48:30;;;;;;;21.67;3.05;;;8.00;99.90;;;;;;5089939;27;20047;-83
2021/12/19 13:51:03;;;;;;;20.35;2.90;;;8.00;99.90;;;;;;5078868;28;20038;-84
2021/12/19 13:53:32;;;;;;;24.75;2.80;;;8.40;99.90;;;;;;5108342;27;20044;-84
2021/12/19 13:56:04;;;;;;;25.00;2.50;;;8.00;99.90;;;;;;5077681;28;20048;-85
2021/12/19 13:58:33;;;;;;;17.80;2.20;;;8.00;99.90;;;;;;5071879;28;20054;-83
2021/12/19 14:01:09;;;;;;;17.92;2.58;;;8.00;99.90;;;;;;5094831;28;20047;-83
2021/12/19 14:03:43;;;;;;;14.35;1.70;;;8.90;99.90;;;;;;5093349;28;20052;-84
2021/12/19 14:06:10;;;;;;;14.85;1.70;;;8.00;99.90;;;;;;5088896;28;20032;-83
2021/12/19 14:08:37;;;;;;;9.60;1.67;;;7.90;99.90;;;;;;5076518;28;20055;-83